Time;durP1;ratioP1;P1;durP2;ratioP2;P2;SDS_P1;SDS_P2;PMS_P1;PMS_P2;Temp;Humidity;BMP_temperature;BMP_pressure;BME280_temperature;BME280_humidity;BME280_pressure;Samples;Min_cycle;Max_cycle;Signal;HPM_P1;HPM_P2
2022/04/17 00:02:16;;;;;;;38.77;9.27;;;5.90;20.20;;;;;;5020185;28;21192;-60
2022/04/17 00:04:42;;;;;;;41.97;7.40;;;5.90;20.30;;;;;;5026261;28;20458;-59
2022/04/17 00:07:09;;;;;;;38.80;8.63;;;5.90;20.40;;;;;;5026021;28;20485;-59
2022/04/17 00:09:36;;;;;;;39.43;8.30;;;5.80;20.50;;;;;;5020002;28;21227;-59
2022/04/17 00:12:03;;;;;;;40.70;9.17;;;5.80;20.30;;;;;;5023657;28;20474;-60
2022/04/17 00:14:31;;;;;;;39.90;10.57;;;5.80;20.70;;;;;;5017810;28;20491;-59
2022/04/17 00:16:58;;;;;;;40.73;14.77;;;5.80;20.70;;;;;;5018573;28;20503;-59
2022/04/17 00:19:25;;;;;;;38.27;8.20;;;5.80;20.60;;;;;;5027289;28;20467;-59
2022/04/17 00:21:51;;;;;;;38.20;8.33;;;5.80;20.80;;;;;;5028778;28;21004;-59
2022/04/17 00:24:18;;;;;;;38.23;8.70;;;5.80;20.80;;;;;;5027850;28;20459;-59
2022/04/17 00:26:45;;;;;;;39.80;9.13;;;5.80;21.00;;;;;;5020996;28;20479;-58
2022/04/17 00:29:12;;;;;;;37.63;8.87;;;5.70;21.10;;;;;;5028050;28;20462;-59
2022/04/17 00:31:40;;;;;;;38.37;8.60;;;5.70;21.20;;;;;;5023578;28;20486;-58
2022/04/17 00:34:06;;;;;;;40.27;8.43;;;5.70;21.30;;;;;;5024321;28;20479;-61
2022/04/17 00:36:33;;;;;;;38.63;8.43;;;5.60;21.40;;;;;;5025911;28;20490;-59
2022/04/17 00:39:00;;;;;;;39.33;8.40;;;5.60;21.80;;;;;;5026585;28;20467;-59
2022/04/17 00:41:26;;;;;;;40.17;9.00;;;5.60;21.90;;;;;;5025634;28;20463;-59
2022/04/17 00:43:54;;;;;;;38.87;8.50;;;5.50;21.80;;;;;;5021632;28;20463;-59
2022/04/17 00:46:21;;;;;;;40.03;9.93;;;5.50;22.10;;;;;;5025585;28;20469;-59
2022/04/17 00:48:49;;;;;;;39.27;9.10;;;5.50;22.20;;;;;;5024304;28;20463;-60
2022/04/17 00:51:16;;;;;;;39.20;9.07;;;5.40;22.40;;;;;;5034589;28;20470;-59
2022/04/17 00:53:45;;;;;;;40.27;10.20;;;5.40;22.60;;;;;;5025052;28;20512;-60
2022/04/17 00:56:12;;;;;;;39.07;8.87;;;5.30;22.90;;;;;;5029797;28;20475;-60
2022/04/17 00:58:39;;;;;;;40.47;9.30;;;5.30;22.90;;;;;;5026757;28;20466;-60
2022/04/17 01:01:06;;;;;;;38.93;9.33;;;5.30;23.10;;;;;;5028784;28;20482;-60
2022/04/17 01:03:33;;;;;;;39.17;8.90;;;5.30;23.10;;;;;;5025326;28;20466;-60
2022/04/17 01:06:01;;;;;;;38.47;9.30;;;5.20;23.10;;;;;;5026205;28;20517;-59
2022/04/17 01:08:28;;;;;;;40.20;11.47;;;5.20;23.50;;;;;;5022318;28;20482;-59
2022/04/17 01:10:55;;;;;;;39.83;10.23;;;5.20;23.70;;;;;;5022083;28;20844;-60
2022/04/17 01:13:23;;;;;;;44.13;10.90;;;5.10;24.00;;;;;;5028719;28;20458;-59
2022/04/17 01:15:50;;;;;;;45.43;10.30;;;5.10;24.20;;;;;;5037517;28;20489;-59
2022/04/17 01:18:17;;;;;;;40.60;9.90;;;5.00;24.20;;;;;;5028753;28;20560;-58
2022/04/17 01:20:44;;;;;;;42.53;10.47;;;5.00;24.40;;;;;;5030114;28;20455;-60
2022/04/17 01:28:40;;;;;;;39.13;9.33;;;4.90;24.80;;;;;;5022110;28;20973;-60
2022/04/17 01:31:07;;;;;;;40.67;9.93;;;4.90;24.70;;;;;;5030080;28;20980;-60
2022/04/17 01:33:34;;;;;;;41.13;9.87;;;4.90;24.60;;;;;;5028662;28;20466;-59
2022/04/17 01:36:00;;;;;;;42.33;9.33;;;4.80;24.80;;;;;;5025455;28;20488;-59
2022/04/17 01:38:28;;;;;;;42.60;10.80;;;4.80;24.80;;;;;;5033080;28;20504;-60
2022/04/17 01:40:55;;;;;;;41.17;10.43;;;4.80;24.90;;;;;;5025346;28;20857;-60
2022/04/17 01:43:22;;;;;;;40.17;10.67;;;4.80;25.10;;;;;;5025431;28;20464;-59
2022/04/17 01:45:48;;;;;;;42.70;11.00;;;4.70;25.20;;;;;;5026553;28;20463;-59
2022/04/17 01:48:15;;;;;;;40.77;9.50;;;4.70;25.40;;;;;;5034097;28;20489;-58
2022/04/17 01:50:42;;;;;;;38.67;9.10;;;4.70;25.40;;;;;;5025689;28;20462;-59
2022/04/17 01:53:09;;;;;;;37.57;8.47;;;4.60;25.60;;;;;;5029754;28;20474;-59
2022/04/17 01:55:37;;;;;;;39.20;10.57;;;4.60;25.70;;;;;;5027654;28;20478;-59
2022/04/17 01:58:04;;;;;;;37.60;8.20;;;4.60;25.90;;;;;;5024153;28;20570;-60
2022/04/17 02:00:31;;;;;;;39.63;9.63;;;4.60;25.80;;;;;;5030111;28;20987;-61
2022/04/17 02:02:57;;;;;;;39.93;9.77;;;4.50;25.90;;;;;;5026046;28;20468;-60
2022/04/17 02:05:24;;;;;;;40.17;9.73;;;4.50;26.00;;;;;;5024733;28;21030;-59
2022/04/17 02:07:52;;;;;;;39.23;10.00;;;4.50;26.20;;;;;;5025578;28;20502;-60
2022/04/17 02:10:19;;;;;;;41.83;10.10;;;4.50;26.20;;;;;;5028827;28;20466;-60
2022/04/17 02:12:48;;;;;;;39.40;9.77;;;4.40;26.50;;;;;;5025385;28;20493;-59
2022/04/17 02:15:16;;;;;;;42.20;10.53;;;4.40;26.60;;;;;;5029396;28;20486;-59
2022/04/17 02:17:43;;;;;;;40.03;10.27;;;4.40;26.50;;;;;;5024782;28;20486;-59
2022/04/17 02:20:11;;;;;;;40.97;10.33;;;4.40;26.70;;;;;;5022215;28;20467;-59
2022/04/17 02:22:37;;;;;;;43.77;10.37;;;4.30;26.70;;;;;;5034578;28;20509;-60
2022/04/17 02:25:05;;;;;;;42.30;10.50;;;4.30;27.10;;;;;;5028488;28;20454;-59
2022/04/17 02:27:32;;;;;;;39.57;10.60;;;4.30;27.20;;;;;;5026170;28;20479;-58
2022/04/17 02:30:00;;;;;;;41.83;10.70;;;4.20;27.20;;;;;;5024992;28;20525;-60
2022/04/17 02:32:26;;;;;;;41.63;10.53;;;4.20;27.60;;;;;;5029404;28;21004;-58
2022/04/17 02:34:53;;;;;;;42.40;9.63;;;4.20;27.70;;;;;;5025094;28;20540;-60
2022/04/17 02:37:21;;;;;;;41.90;9.80;;;4.10;27.80;;;;;;5027194;28;20491;-60
2022/04/17 02:39:47;;;;;;;39.10;10.70;;;4.10;28.00;;;;;;5025895;28;20467;-59
2022/04/17 02:42:14;;;;;;;42.17;12.33;;;4.10;28.40;;;;;;5033983;28;20465;-60
2022/04/17 02:44:41;;;;;;;41.87;10.30;;;4.10;28.80;;;;;;5032256;28;20828;-59
2022/04/17 02:49:54;;;;;;;40.90;11.87;;;4.00;28.10;;;;;;5023043;28;20478;-59
2022/04/17 02:52:21;;;;;;;40.00;11.73;;;4.00;28.20;;;;;;5028981;28;20607;-60
2022/04/17 02:54:48;;;;;;;39.53;10.73;;;4.00;28.60;;;;;;5028264;28;20486;-59
2022/04/17 02:57:14;;;;;;;39.43;10.37;;;4.00;28.60;;;;;;5028119;28;20489;-60
2022/04/17 02:59:41;;;;;;;39.70;10.73;;;3.90;28.70;;;;;;5028728;28;20455;-59
2022/04/17 03:07:40;;;;;;;40.27;11.47;;;3.80;29.00;;;;;;5025933;28;20606;-57
2022/04/17 03:10:08;;;;;;;40.60;10.77;;;3.80;29.40;;;;;;5029320;28;20803;-60
2022/04/17 03:12:37;;;;;;;40.20;11.70;;;3.80;29.50;;;;;;5026265;28;20470;-59
2022/04/17 03:15:05;;;;;;;39.80;10.70;;;3.80;29.50;;;;;;5022208;28;20487;-59
2022/04/17 03:17:33;;;;;;;40.07;11.00;;;3.80;29.60;;;;;;5028404;28;20482;-60
2022/04/17 03:19:59;;;;;;;39.97;11.00;;;3.80;29.70;;;;;;5028404;28;20470;-60
2022/04/17 03:22:26;;;;;;;41.57;11.37;;;3.70;29.40;;;;;;5024052;28;20841;-60
2022/04/17 03:24:53;;;;;;;41.03;11.97;;;3.70;29.60;;;;;;5013462;28;20472;-59
2022/04/17 03:27:20;;;;;;;42.17;11.97;;;3.70;29.50;;;;;;5021357;28;20486;-60
2022/04/17 03:29:47;;;;;;;42.30;11.53;;;3.60;29.50;;;;;;5033232;28;20473;-59
2022/04/17 03:32:13;;;;;;;40.10;11.33;;;3.60;29.70;;;;;;5026508;28;20483;-60
2022/04/17 03:34:41;;;;;;;40.17;11.57;;;3.60;29.70;;;;;;5024151;28;20459;-59
2022/04/17 03:37:09;;;;;;;41.80;11.30;;;3.60;29.80;;;;;;5024909;28;20501;-60
2022/04/17 03:39:35;;;;;;;38.90;9.83;;;3.60;29.70;;;;;;5030427;28;20455;-59
2022/04/17 03:42:03;;;;;;;40.17;11.50;;;3.50;29.60;;;;;;5015054;28;20464;-59
2022/04/17 03:44:29;;;;;;;42.43;12.90;;;3.50;30.00;;;;;;5028262;28;20478;-59
2022/04/17 03:46:56;;;;;;;41.00;12.33;;;3.50;30.10;;;;;;5037307;28;20475;-59
2022/04/17 03:49:24;;;;;;;40.23;12.10;;;3.40;30.40;;;;;;5028212;28;20483;-60
2022/04/17 03:51:52;;;;;;;40.90;10.50;;;3.40;30.50;;;;;;5031638;28;21039;-60
2022/04/17 03:54:19;;;;;;;40.13;10.90;;;3.40;30.20;;;;;;5030138;28;20466;-60
2022/04/17 03:56:47;;;;;;;41.97;11.87;;;3.40;30.30;;;;;;5026764;28;20649;-60
2022/04/17 03:59:14;;;;;;;41.33;11.50;;;3.30;30.10;;;;;;5027933;28;20463;-60
2022/04/17 04:01:41;;;;;;;42.23;11.27;;;3.30;30.20;;;;;;5015539;28;20490;-60
2022/04/17 04:04:08;;;;;;;40.93;12.67;;;3.30;30.20;;;;;;5023799;28;20466;-59
2022/04/17 04:06:34;;;;;;;43.37;12.33;;;3.30;30.30;;;;;;5024523;28;20487;-59
2022/04/17 04:09:03;;;;;;;39.37;11.23;;;3.20;30.60;;;;;;5025536;28;20829;-59
2022/04/17 04:11:29;;;;;;;40.33;11.97;;;3.20;30.80;;;;;;5023648;28;20993;-59
2022/04/17 04:13:56;;;;;;;38.80;11.90;;;3.20;30.90;;;;;;5020709;28;20463;-59
2022/04/17 04:16:23;;;;;;;40.43;12.13;;;3.20;30.90;;;;;;5032812;28;20941;-59
2022/04/17 04:18:50;;;;;;;42.33;13.17;;;3.20;30.90;;;;;;5027481;28;20470;-59
2022/04/17 04:21:17;;;;;;;42.20;12.73;;;3.20;30.90;;;;;;5025654;28;20612;-60
2022/04/17 04:23:43;;;;;;;40.83;13.60;;;3.10;31.30;;;;;;5033504;28;20698;-59
2022/04/17 04:26:11;;;;;;;41.57;13.23;;;3.10;31.50;;;;;;5027232;28;20455;-60
2022/04/17 04:28:37;;;;;;;45.10;13.30;;;3.10;31.50;;;;;;5026742;28;20459;-59
2022/04/17 04:31:05;;;;;;;43.40;13.57;;;3.10;31.40;;;;;;5026738;28;20479;-59
2022/04/17 04:33:32;;;;;;;39.47;13.00;;;3.10;32.10;;;;;;5026463;28;20200;-59
2022/04/17 04:35:59;;;;;;;42.70;12.30;;;3.10;31.60;;;;;;5027708;28;21172;-59
2022/04/17 04:38:26;;;;;;;43.97;12.77;;;3.10;32.40;;;;;;5027847;28;20479;-59
2022/04/17 04:40:53;;;;;;;42.47;13.67;;;3.10;31.70;;;;;;5022300;28;20451;-60
2022/04/17 04:43:21;;;;;;;41.80;12.50;;;3.20;31.70;;;;;;5027670;28;20941;-60
2022/04/17 04:51:17;;;;;;;43.07;12.60;;;3.20;31.70;;;;;;5023807;28;20577;-59
2022/04/17 04:53:44;;;;;;;42.17;12.20;;;3.20;31.70;;;;;;5023014;28;21008;-58
2022/04/17 04:56:12;;;;;;;39.60;11.50;;;3.30;31.80;;;;;;5025175;28;20493;-59
2022/04/17 04:58:40;;;;;;;43.80;11.57;;;3.30;31.80;;;;;;5024517;28;21020;-59
2022/04/17 05:01:07;;;;;;;44.83;11.97;;;3.40;31.60;;;;;;5026097;28;21003;-60
2022/04/17 05:03:35;;;;;;;42.87;11.20;;;3.50;31.50;;;;;;5025614;28;21781;-59
2022/04/17 05:06:02;;;;;;;41.77;10.03;;;3.70;31.50;;;;;;5025866;28;20462;-60
2022/04/17 05:08:29;;;;;;;41.13;10.67;;;4.20;31.20;;;;;;5030323;28;20498;-59
2022/04/17 05:10:56;;;;;;;41.20;9.73;;;4.80;29.90;;;;;;5031343;28;20883;-59
2022/04/17 05:13:23;;;;;;;39.10;9.10;;;5.40;28.40;;;;;;5027114;28;20467;-59
2022/04/17 05:15:51;;;;;;;38.80;9.47;;;5.80;27.80;;;;;;5024520;28;20479;-60
2022/04/17 05:18:18;;;;;;;38.13;7.83;;;6.20;26.30;;;;;;5027767;28;20490;-60
2022/04/17 05:20:45;;;;;;;38.70;9.53;;;6.40;25.90;;;;;;5032748;28;20820;-60
2022/04/17 05:23:19;;;;;;;38.90;9.27;;;6.50;25.90;;;;;;5025751;28;20473;-60
2022/04/17 05:25:47;;;;;;;39.60;9.63;;;6.60;25.70;;;;;;5027247;28;20449;-60
2022/04/17 05:28:14;;;;;;;38.97;8.90;;;6.70;24.80;;;;;;5022921;28;20571;-59
2022/04/17 05:30:42;;;;;;;38.97;9.43;;;6.90;24.00;;;;;;5025649;28;20462;-60
2022/04/17 05:33:10;;;;;;;37.83;9.27;;;7.40;22.80;;;;;;5020911;28;20464;-60
2022/04/17 05:35:37;;;;;;;38.90;9.67;;;8.00;20.90;;;;;;5026647;28;20483;-60
2022/04/17 05:38:05;;;;;;;37.60;10.33;;;8.40;19.40;;;;;;5028264;28;20493;-60
2022/04/17 05:40:35;;;;;;;39.07;10.00;;;8.80;18.50;;;;;;5028502;28;20463;-62
2022/04/17 05:43:03;;;;;;;37.87;9.67;;;9.40;17.70;;;;;;5023997;28;20515;-59
2022/04/17 05:45:30;;;;;;;36.77;10.20;;;10.30;16.30;;;;;;5023791;28;20465;-60
2022/04/17 05:47:58;;;;;;;37.93;8.73;;;11.60;14.10;;;;;;5020012;28;20479;-61
2022/04/17 05:50:27;;;;;;;36.00;8.87;;;12.90;12.70;;;;;;5024717;28;20490;-60
2022/04/17 05:52:54;;;;;;;35.90;8.27;;;14.40;9.60;;;;;;5023271;28;20788;-60
2022/04/17 05:55:21;;;;;;;33.90;8.27;;;15.70;7.10;;;;;;5023700;28;20463;-59
2022/04/17 05:57:48;;;;;;;34.10;7.70;;;16.50;5.40;;;;;;5031775;28;20569;-59
2022/04/17 06:00:16;;;;;;;33.00;7.97;;;17.90;3.90;;;;;;5030391;28;20477;-60
2022/04/17 06:02:44;;;;;;;32.60;7.33;;;19.50;1.70;;;;;;5031349;28;20462;-60
2022/04/17 06:05:11;;;;;;;33.23;7.43;;;20.80;1.00;;;;;;5029329;28;20462;-59
2022/04/17 06:07:40;;;;;;;32.87;7.60;;;21.30;1.00;;;;;;5025336;28;20480;-59
2022/04/17 06:10:09;;;;;;;31.37;7.70;;;21.50;1.00;;;;;;5028674;28;20486;-61
2022/04/17 06:12:37;;;;;;;33.63;7.33;;;22.30;1.00;;;;;;5024441;28;20459;-61
2022/04/17 06:15:07;;;;;;;34.40;7.40;;;23.00;1.00;;;;;;5033769;28;20458;-61
2022/04/17 06:17:38;;;;;;;33.20;7.80;;;23.70;1.00;;;;;;5026925;28;20487;-60
2022/04/17 06:20:06;;;;;;;30.90;7.27;;;24.50;1.00;;;;;;5027226;28;20491;-59
2022/04/17 06:22:34;;;;;;;30.77;7.37;;;25.30;1.00;;;;;;5020486;28;21353;-59
2022/04/17 06:25:03;;;;;;;29.90;6.40;;;26.60;1.00;;;;;;5027900;28;20490;-60
2022/04/17 06:27:37;;;;;;;27.90;6.30;;;27.90;1.00;;;;;;5024952;28;21031;-60
2022/04/17 06:30:10;;;;;;;29.43;6.50;;;28.50;1.00;;;;;;5028372;28;20459;-61
2022/04/17 06:32:37;;;;;;;27.77;5.60;;;29.40;1.00;;;;;;5024023;28;20466;-60
2022/04/17 06:35:04;;;;;;;27.83;5.70;;;30.40;1.00;;;;;;5026940;28;20491;-61
2022/04/17 06:37:31;;;;;;;28.70;6.13;;;30.90;1.00;;;;;;5024006;28;20491;-60
2022/04/17 06:39:58;;;;;;;27.90;5.70;;;31.60;1.00;;;;;;5027555;28;20486;-59
2022/04/17 06:42:26;;;;;;;27.50;5.90;;;31.40;1.00;;;;;;5026185;28;20467;-61
2022/04/17 06:44:53;;;;;;;27.40;5.33;;;31.10;1.00;;;;;;5030869;28;20505;-61
2022/04/17 06:47:19;;;;;;;27.73;6.17;;;31.10;1.00;;;;;;5029948;28;20482;-62
2022/04/17 06:49:46;;;;;;;27.50;5.80;;;31.40;1.00;;;;;;5025122;28;20470;-62
2022/04/17 06:52:13;;;;;;;28.30;6.60;;;31.10;1.00;;;;;;5028326;28;20466;-62
2022/04/17 06:54:40;;;;;;;27.40;5.50;;;31.40;1.00;;;;;;5028324;28;21035;-61
2022/04/17 06:57:07;;;;;;;26.03;4.60;;;32.50;1.00;;;;;;5025762;28;20494;-63
2022/04/17 06:59:35;;;;;;;25.60;4.40;;;33.50;1.00;;;;;;5025207;28;21031;-61
2022/04/17 07:02:02;;;;;;;25.80;4.77;;;34.30;1.00;;;;;;5022633;28;20872;-62
2022/04/17 07:04:29;;;;;;;26.80;5.00;;;34.90;1.00;;;;;;5026782;28;20463;-62
2022/04/17 07:06:56;;;;;;;25.00;4.53;;;35.60;1.00;;;;;;5025711;28;20479;-60
2022/04/17 07:09:23;;;;;;;26.17;5.00;;;36.40;1.00;;;;;;5027084;28;20517;-61
2022/04/17 07:11:51;;;;;;;26.60;4.27;;;36.50;1.00;;;;;;5027927;28;20474;-62
2022/04/17 07:14:18;;;;;;;25.67;5.30;;;36.60;1.00;;;;;;5023713;28;20471;-61
2022/04/17 07:16:47;;;;;;;25.70;4.30;;;36.80;1.00;;;;;;5020811;28;20487;-61
2022/04/17 07:19:16;;;;;;;24.93;4.40;;;37.30;1.00;;;;;;5026482;28;20494;-61
2022/04/17 07:21:43;;;;;;;25.47;4.13;;;36.70;1.00;;;;;;5024014;28;21078;-62
2022/04/17 07:24:09;;;;;;;25.40;4.83;;;35.40;1.00;;;;;;5030192;28;20463;-61
2022/04/17 07:26:36;;;;;;;24.97;4.10;;;34.80;1.00;;;;;;5028216;28;20483;-61
2022/04/17 07:29:03;;;;;;;25.67;4.53;;;35.50;1.00;;;;;;5023734;28;20469;-62
2022/04/17 07:31:30;;;;;;;24.87;4.37;;;35.00;1.00;;;;;;5024943;28;20477;-61
2022/04/17 07:33:59;;;;;;;25.40;4.33;;;34.70;1.00;;;;;;5028412;28;20847;-61
2022/04/17 07:36:25;;;;;;;25.00;4.10;;;35.20;1.00;;;;;;5022857;28;20915;-61
2022/04/17 07:38:52;;;;;;;26.43;3.80;;;35.40;1.00;;;;;;5029899;28;20466;-61
2022/04/17 07:41:19;;;;;;;26.03;4.43;;;35.40;1.00;;;;;;5025162;28;21106;-62
2022/04/17 07:43:46;;;;;;;24.97;4.20;;;35.40;1.00;;;;;;5027106;28;20463;-63
2022/04/17 07:46:13;;;;;;;24.87;3.90;;;34.70;1.00;;;;;;5029439;28;20461;-61
2022/04/17 07:48:39;;;;;;;26.30;4.40;;;34.60;1.00;;;;;;5025374;28;20466;-62
2022/04/17 07:51:07;;;;;;;25.40;3.90;;;34.90;1.00;;;;;;5022449;28;20463;-60
2022/04/17 07:53:34;;;;;;;27.10;4.40;;;34.80;1.00;;;;;;5022945;28;20474;-61
2022/04/17 07:56:02;;;;;;;25.60;3.80;;;34.30;1.00;;;;;;5034054;28;20473;-61
2022/04/17 07:58:34;;;;;;;25.80;4.10;;;34.90;1.00;;;;;;5029993;28;20487;-62
2022/04/17 08:01:10;;;;;;;24.57;3.83;;;35.50;1.00;;;;;;5029609;28;20474;-62
2022/04/17 08:03:46;;;;;;;24.83;4.03;;;35.70;1.00;;;;;;5025247;28;20461;-60
2022/04/17 08:06:16;;;;;;;25.53;4.43;;;35.60;1.00;;;;;;5031677;28;21034;-61
2022/04/17 08:08:43;;;;;;;24.80;3.70;;;35.60;1.00;;;;;;5026627;28;20462;-60
2022/04/17 08:11:11;;;;;;;25.20;3.80;;;35.40;1.00;;;;;;5029378;28;20810;-61
2022/04/17 08:13:38;;;;;;;24.77;4.20;;;36.10;1.00;;;;;;5026731;28;20470;-61
2022/04/17 08:16:06;;;;;;;24.67;3.27;;;36.30;1.00;;;;;;5025551;28;20956;-61
2022/04/17 08:18:34;;;;;;;25.17;3.77;;;37.20;1.00;;;;;;5034516;28;20455;-61
2022/04/17 08:21:01;;;;;;;24.70;3.40;;;37.60;1.00;;;;;;5022619;28;20460;-62
2022/04/17 08:23:29;;;;;;;23.30;3.83;;;38.40;1.00;;;;;;5025246;28;20458;-62
2022/04/17 08:25:56;;;;;;;23.83;4.03;;;39.50;1.00;;;;;;5031002;28;20463;-63
2022/04/17 08:28:23;;;;;;;24.07;3.90;;;39.70;1.00;;;;;;5028488;28;20486;-61
2022/04/17 08:30:50;;;;;;;23.73;3.63;;;39.90;1.00;;;;;;5034436;28;20494;-60
2022/04/17 08:33:17;;;;;;;23.73;4.20;;;39.70;1.00;;;;;;5017519;28;20906;-61
2022/04/17 08:35:46;;;;;;;23.90;3.60;;;40.00;1.00;;;;;;5025419;28;20520;-60
2022/04/17 08:38:14;;;;;;;23.40;3.70;;;40.00;1.00;;;;;;5027382;28;20490;-60
2022/04/17 08:40:42;;;;;;;23.07;3.57;;;39.80;1.00;;;;;;5026955;28;20472;-61
2022/04/17 08:43:09;;;;;;;23.07;3.57;;;39.80;1.00;;;;;;5026712;28;20479;-61
2022/04/17 08:45:37;;;;;;;24.10;3.50;;;39.80;1.00;;;;;;5020274;28;20473;-61
2022/04/17 08:48:05;;;;;;;22.80;3.57;;;40.10;1.00;;;;;;5020389;28;20480;-60
2022/04/17 08:50:32;;;;;;;23.30;3.50;;;40.40;1.00;;;;;;5028020;28;20485;-61
2022/04/17 08:53:00;;;;;;;23.53;3.60;;;40.60;1.00;;;;;;5025425;28;20467;-61
2022/04/17 08:55:26;;;;;;;23.23;3.50;;;41.00;1.00;;;;;;5027646;28;20532;-61
2022/04/17 08:57:54;;;;;;;23.23;3.30;;;40.60;1.00;;;;;;5019132;28;20550;-60
2022/04/17 09:00:22;;;;;;;22.47;3.07;;;39.90;1.00;;;;;;5022917;28;20960;-64
2022/04/17 09:02:49;;;;;;;23.63;3.77;;;40.20;1.00;;;;;;5022182;28;20988;-62
2022/04/17 09:05:21;;;;;;;23.40;3.77;;;40.80;1.00;;;;;;5025121;28;20471;-61
2022/04/17 09:07:49;;;;;;;23.80;3.60;;;40.10;1.00;;;;;;5020612;28;20479;-61
2022/04/17 09:10:27;;;;;;;24.27;4.10;;;39.00;1.00;;;;;;5027186;28;20459;-60
2022/04/17 09:12:59;;;;;;;23.80;3.73;;;38.60;1.00;;;;;;5023586;28;20491;-60
2022/04/17 09:15:26;;;;;;;24.70;4.20;;;39.40;1.00;;;;;;5022524;28;20828;-61
2022/04/17 09:17:54;;;;;;;23.67;3.53;;;40.10;1.00;;;;;;5024423;28;20483;-61
2022/04/17 09:20:22;;;;;;;23.80;3.47;;;40.30;1.00;;;;;;5023132;28;20467;-61
2022/04/17 09:22:51;;;;;;;24.07;3.50;;;40.00;1.00;;;;;;5024079;28;20463;-61
2022/04/17 09:25:18;;;;;;;24.90;3.43;;;40.10;1.00;;;;;;5027266;28;20966;-61
2022/04/17 09:27:57;;;;;;;23.07;2.70;;;40.30;1.00;;;;;;5025305;28;20574;-62
2022/04/17 09:30:26;;;;;;;24.40;3.00;;;39.30;1.00;;;;;;5023164;28;20462;-61
2022/04/17 09:32:53;;;;;;;25.13;4.20;;;39.00;1.00;;;;;;5022123;28;20471;-61
2022/04/17 09:35:23;;;;;;;23.10;3.20;;;39.20;1.00;;;;;;5020623;28;20507;-61
2022/04/17 09:37:54;;;;;;;24.00;3.30;;;39.80;1.00;;;;;;5021358;28;20567;-61
2022/04/17 09:40:21;;;;;;;23.90;3.50;;;40.10;1.00;;;;;;5027879;28;20471;-62
2022/04/17 09:42:48;;;;;;;25.53;3.30;;;40.30;1.00;;;;;;5029191;28;20467;-61
2022/04/17 09:45:16;;;;;;;23.30;3.37;;;39.80;1.00;;;;;;5027789;28;20467;-61
2022/04/17 09:47:56;;;;;;;23.30;3.20;;;39.80;1.00;;;;;;5025752;28;20504;-61
2022/04/17 09:50:32;;;;;;;23.27;3.60;;;40.40;1.00;;;;;;5027110;28;20458;-62
2022/04/17 09:53:03;;;;;;;23.70;3.37;;;40.60;1.00;;;;;;5027231;28;20463;-61
2022/04/17 09:55:31;;;;;;;23.47;3.80;;;40.60;1.00;;;;;;5031902;28;21409;-61
2022/04/17 09:57:59;;;;;;;25.00;3.50;;;40.10;1.00;;;;;;5030829;28;20468;-61
2022/04/17 10:00:27;;;;;;;25.17;3.17;;;39.70;1.00;;;;;;5038604;28;20196;-62
2022/04/17 10:02:54;;;;;;;24.67;3.13;;;39.70;1.00;;;;;;5032476;28;20466;-61
2022/04/17 10:05:22;;;;;;;23.57;3.37;;;39.30;1.00;;;;;;5032713;28;20470;-62
2022/04/17 10:07:50;;;;;;;25.90;3.90;;;39.40;1.00;;;;;;5029970;28;20862;-60
2022/04/17 10:10:18;;;;;;;23.37;2.90;;;39.90;1.00;;;;;;5029974;28;20487;-61
2022/04/17 10:12:47;;;;;;;24.10;3.33;;;39.20;1.00;;;;;;5025950;28;20464;-61
2022/04/17 10:15:14;;;;;;;24.90;2.90;;;38.10;1.00;;;;;;5030183;28;20463;-61
2022/04/17 10:17:46;;;;;;;24.53;4.30;;;37.30;1.00;;;;;;5027697;28;20486;-61
2022/04/17 10:20:15;;;;;;;25.30;3.37;;;37.60;1.00;;;;;;5031700;28;20463;-61
2022/04/17 10:22:44;;;;;;;24.23;3.50;;;37.40;1.00;;;;;;5020439;28;20470;-61
2022/04/17 10:25:11;;;;;;;25.40;3.10;;;37.20;1.00;;;;;;5025144;28;20463;-61
2022/04/17 10:27:44;;;;;;;28.70;3.07;;;37.30;1.00;;;;;;5027611;28;20497;-60
2022/04/17 10:30:15;;;;;;;24.23;3.13;;;36.70;1.00;;;;;;5030853;28;20462;-61
2022/04/17 10:33:18;;;;;;;24.07;2.63;;;36.90;1.00;;;;;;5024706;28;20495;-61
2022/04/17 10:36:02;;;;;;;25.40;3.50;;;36.30;1.00;;;;;;5025986;28;20487;-61
2022/04/17 10:38:31;;;;;;;25.30;3.33;;;35.20;1.00;;;;;;5025904;28;20486;-61
2022/04/17 10:41:00;;;;;;;26.80;3.50;;;34.20;1.00;;;;;;5028721;28;20467;-61
2022/04/17 10:43:34;;;;;;;26.03;4.00;;;33.20;1.00;;;;;;5021124;28;20594;-60
2022/04/17 10:46:15;;;;;;;26.13;3.67;;;33.00;1.00;;;;;;5021556;28;20470;-61
2022/04/17 10:48:50;;;;;;;26.93;4.30;;;32.50;1.00;;;;;;5027695;28;20463;-61
2022/04/17 10:51:20;;;;;;;26.40;3.60;;;30.70;1.00;;;;;;5023643;28;20481;-61
2022/04/17 10:53:52;;;;;;;26.37;3.37;;;28.70;1.00;;;;;;5015716;28;20455;-58
2022/04/17 10:56:19;;;;;;;27.80;3.67;;;27.10;1.00;;;;;;5026347;28;20462;-58
2022/04/17 10:58:54;;;;;;;27.23;3.60;;;25.20;1.00;;;;;;5022886;28;20519;-58
2022/04/17 11:01:56;;;;;;;27.50;3.80;;;23.50;1.00;;;;;;5024867;28;20477;-58
2022/04/17 11:04:25;;;;;;;28.77;3.43;;;22.10;1.00;;;;;;5027263;28;20458;-59
2022/04/17 11:06:54;;;;;;;29.23;4.90;;;21.10;1.00;;;;;;5028247;28;20475;-60
2022/04/17 11:09:23;;;;;;;28.50;3.47;;;20.50;1.00;;;;;;5030756;28;20454;-59
2022/04/17 11:11:50;;;;;;;29.20;3.90;;;19.70;1.00;;;;;;5026503;28;20462;-58
2022/04/17 11:14:19;;;;;;;29.30;4.40;;;19.10;1.00;;;;;;5021752;28;20539;-59
2022/04/17 11:16:48;;;;;;;29.10;3.67;;;18.60;1.00;;;;;;5035019;28;20503;-59
2022/04/17 11:19:17;;;;;;;30.83;3.77;;;18.20;1.00;;;;;;5024661;28;20483;-59
2022/04/17 11:21:47;;;;;;;29.30;3.53;;;17.90;1.00;;;;;;5028960;28;20462;-59
2022/04/17 11:24:14;;;;;;;30.17;3.60;;;17.70;1.00;;;;;;5028946;28;20468;-62
2022/04/17 11:27:12;;;;;;;28.57;3.10;;;17.60;1.00;;;;;;5034266;28;20481;-60
2022/04/17 11:29:43;;;;;;;29.57;3.73;;;17.30;1.00;;;;;;5032770;28;20466;-61
2022/04/17 11:32:43;;;;;;;29.17;3.40;;;17.10;1.00;;;;;;5025352;28;20470;-60
2022/04/17 11:35:11;;;;;;;30.30;3.37;;;16.80;1.00;;;;;;5029276;28;20467;-61
2022/04/17 11:37:40;;;;;;;29.50;3.50;;;16.40;1.00;;;;;;5024370;28;20517;-62
2022/04/17 11:40:11;;;;;;;30.83;4.80;;;16.20;1.00;;;;;;5027574;28;20475;-59
2022/04/17 11:42:43;;;;;;;29.63;3.80;;;16.10;1.00;;;;;;5024749;28;20466;-62
2022/04/17 11:45:11;;;;;;;30.30;4.07;;;16.10;1.00;;;;;;5018958;28;20560;-64
2022/04/17 11:47:39;;;;;;;29.87;4.07;;;16.10;1.00;;;;;;5031505;28;20477;-60
2022/04/17 11:50:09;;;;;;;32.07;3.60;;;16.00;1.00;;;;;;5025807;28;20467;-58
2022/04/17 11:52:36;;;;;;;31.73;5.90;;;15.90;1.00;;;;;;5029578;28;20929;-59
2022/04/17 11:55:06;;;;;;;29.70;4.03;;;15.90;1.00;;;;;;5031227;28;20482;-62
2022/04/17 11:57:33;;;;;;;29.80;4.00;;;15.90;1.40;;;;;;5030993;28;20485;-61
2022/04/17 12:00:01;;;;;;;31.37;8.73;;;15.80;1.00;;;;;;5022742;28;20471;-62
2022/04/17 12:02:29;;;;;;;31.40;4.20;;;15.80;1.00;;;;;;5024155;28;20482;-61
2022/04/17 12:04:57;;;;;;;30.43;4.47;;;15.70;1.00;;;;;;5025275;28;20458;-59
2022/04/17 12:07:25;;;;;;;30.43;3.93;;;15.60;1.00;;;;;;5026956;28;20491;-61
2022/04/17 12:10:03;;;;;;;30.77;6.53;;;15.50;1.00;;;;;;5026063;28;20455;-59
2022/04/17 12:12:34;;;;;;;29.57;4.33;;;15.40;1.10;;;;;;5023678;28;20458;-60
2022/04/17 12:15:03;;;;;;;30.00;4.50;;;15.40;1.70;;;;;;5022504;28;20566;-62
2022/04/17 12:17:31;;;;;;;30.50;4.07;;;15.50;1.80;;;;;;5027580;28;20574;-60
2022/04/17 12:19:58;;;;;;;29.87;4.00;;;15.40;1.00;;;;;;5035093;28;20498;-62
2022/04/17 12:22:25;;;;;;;30.87;4.70;;;15.40;1.70;;;;;;5030822;28;20467;-59
2022/04/17 12:24:52;;;;;;;30.43;4.03;;;15.40;1.20;;;;;;5032112;28;20975;-63
2022/04/17 12:27:21;;;;;;;31.73;4.50;;;15.40;1.40;;;;;;5025715;28;21096;-60
2022/04/17 12:29:48;;;;;;;30.90;4.33;;;15.30;1.70;;;;;;5028340;28;20473;-62
2022/04/17 12:32:16;;;;;;;30.20;4.23;;;15.20;1.10;;;;;;5020850;28;20494;-60
2022/04/17 12:34:45;;;;;;;29.97;3.93;;;15.20;1.00;;;;;;5027134;28;20992;-60
2022/04/17 12:37:21;;;;;;;32.20;5.80;;;15.20;1.40;;;;;;5013959;28;20544;-59
2022/04/17 12:39:48;;;;;;;31.97;4.27;;;15.20;2.00;;;;;;5025700;28;20543;-61
2022/04/17 12:42:20;;;;;;;29.87;3.77;;;15.30;2.30;;;;;;5020209;28;20470;-61
2022/04/17 12:44:47;;;;;;;31.77;4.23;;;15.30;2.10;;;;;;5020302;28;20459;-61
2022/04/17 12:47:16;;;;;;;30.23;3.70;;;15.30;2.30;;;;;;5018673;28;20475;-63
2022/04/17 12:49:43;;;;;;;29.90;3.90;;;15.40;2.60;;;;;;5029446;28;20451;-61
2022/04/17 12:52:21;;;;;;;30.27;3.83;;;15.30;1.70;;;;;;5033717;28;20471;-61
2022/04/17 12:54:48;;;;;;;30.80;3.83;;;15.30;2.00;;;;;;5025838;28;20467;-61
2022/04/17 12:57:21;;;;;;;30.60;4.93;;;15.20;1.20;;;;;;5023836;28;20601;-62
2022/04/17 12:59:50;;;;;;;29.87;3.83;;;15.10;2.40;;;;;;5029359;28;20496;-61
2022/04/17 13:02:18;;;;;;;30.20;3.17;;;15.10;2.00;;;;;;5016700;28;20479;-61
2022/04/17 13:04:46;;;;;;;32.57;4.80;;;15.00;1.00;;;;;;5017665;28;20474;-62
2022/04/17 13:07:15;;;;;;;29.80;3.60;;;14.80;2.00;;;;;;5038957;28;20910;-61
2022/04/17 13:09:52;;;;;;;30.33;4.37;;;14.80;2.40;;;;;;5028993;28;20454;-61